Time;durP1;ratioP1;P1;durP2;ratioP2;P2;SDS_P1;SDS_P2;PMS_P1;PMS_P2;Temp;Humidity;BMP_temperature;BMP_pressure;BME280_temperature;BME280_humidity;BME280_pressure;Samples;Min_cycle;Max_cycle;Signal;HPM_P1;HPM_P2
2022/06/12 02:22:43;;;;;;;7.47;4.13;;;;;;;;;;6230687;22;20203;-90
2022/06/12 02:25:52;;;;;;;5.40;3.63;;;;;;;;;;6244492;22;20171;-89
2022/06/12 02:28:59;;;;;;;6.80;3.88;;;;;;;;;;6244635;23;20162;-91
2022/06/12 02:32:07;;;;;;;6.05;3.75;;;;;;;;;;6244966;23;20181;-91
2022/06/12 02:35:15;;;;;;;11.57;4.00;;;;;;;;;;6243101;23;20205;-91
2022/06/12 02:38:23;;;;;;;6.38;3.85;;;;;;;;;;6245553;22;20150;-90
2022/06/12 02:41:31;;;;;;;5.97;4.00;;;;;;;;;;6242818;22;20189;-90
2022/06/12 02:44:40;;;;;;;11.80;3.85;;;;;;;;;;6242148;22;20818;-91
2022/06/12 02:47:47;;;;;;;6.53;3.70;;;;;;;;;;6242510;23;20214;-92
2022/06/12 02:50:59;;;;;;;8.68;3.38;;;;;;;;;;6241039;23;20158;-90
2022/06/12 02:54:09;;;;;;;10.80;3.90;;;;;;;;;;6241675;22;20150;-91
2022/06/12 02:57:20;;;;;;;7.25;3.30;;;;;;;;;;6243898;22;20169;-92
2022/06/12 03:00:30;;;;;;;8.77;4.00;;;;;;;;;;6243862;22;20213;-90
2022/06/12 03:03:38;;;;;;;7.15;3.72;;;;;;;;;;6243464;23;20672;-90
2022/06/12 03:06:44;;;;;;;6.57;3.70;;;;;;;;;;6241766;23;20183;-90
2022/06/12 03:09:51;;;;;;;9.02;3.72;;;;;;;;;;6240961;22;20150;-90
2022/06/12 03:12:56;;;;;;;8.45;3.88;;;;;;;;;;6242512;22;20244;-92
2022/06/12 03:16:10;;;;;;;13.98;3.63;;;;;;;;;;6242720;23;20167;-91
2022/06/12 03:19:17;;;;;;;6.10;4.03;;;;;;;;;;6260655;22;20219;-91
2022/06/12 03:22:28;;;;;;;7.90;3.85;;;;;;;;;;6240363;23;20194;-93
2022/06/12 03:25:38;;;;;;;5.63;3.95;;;;;;;;;;6241950;22;20147;-91
2022/06/12 08:56:44;;;;;;;3.20;1.98;;;;;;;;;;6229239;22;1445314;-93
2022/06/12 08:59:52;;;;;;;3.80;2.00;;;;;;;;;;6274324;22;20596;-93
2022/06/12 09:02:57;;;;;;;5.30;2.20;;;;;;;;;;6275694;22;20161;-93
2022/06/12 09:06:09;;;;;;;6.43;2.38;;;;;;;;;;6273030;22;20482;-93
2022/06/12 09:09:34;;;;;;;5.43;2.08;;;;;;;;;;6273593;22;20169;-93
2022/06/12 09:12:47;;;;;;;3.28;2.10;;;;;;;;;;6274327;22;20193;-92
2022/06/12 09:15:57;;;;;;;4.13;1.83;;;;;;;;;;6273704;22;20196;-95
2022/06/12 09:19:06;;;;;;;3.47;1.60;;;;;;;;;;6272194;22;20189;-94
2022/06/12 09:26:38;;;;;;;3.33;1.60;;;;;;;;;;6293980;22;20173;-92
2022/06/12 09:33:10;;;;;;;2.50;1.65;;;;;;;;;;6277258;22;20148;-93
2022/06/12 09:36:30;;;;;;;3.95;1.80;;;;;;;;;;6292631;22;20165;-92
2022/06/12 09:39:40;;;;;;;3.15;1.70;;;;;;;;;;6274137;22;20236;-93
2022/06/12 09:42:51;;;;;;;3.85;1.77;;;;;;;;;;6272458;22;20165;-92
2022/06/12 09:46:00;;;;;;;1.73;1.45;;;;;;;;;;6274692;22;20276;-93
2022/06/12 09:49:11;;;;;;;8.00;1.70;;;;;;;;;;6274664;22;20157;-94
2022/06/12 09:52:24;;;;;;;4.55;1.60;;;;;;;;;;6274439;22;20551;-94
2022/06/12 09:58:55;;;;;;;4.97;1.50;;;;;;;;;;6273148;22;20216;-92
2022/06/12 10:02:17;;;;;;;2.33;1.73;;;;;;;;;;6274308;22;20169;-93
2022/06/12 10:05:26;;;;;;;2.55;1.50;;;;;;;;;;6272716;22;20495;-94
2022/06/12 10:08:33;;;;;;;3.78;1.77;;;;;;;;;;6272489;22;20164;-93
2022/06/12 10:11:41;;;;;;;1.90;1.40;;;;;;;;;;6272815;22;20152;-93
2022/06/12 10:14:52;;;;;;;5.82;1.60;;;;;;;;;;6272748;22;20209;-93
2022/06/12 10:18:04;;;;;;;6.38;1.55;;;;;;;;;;6276991;22;20651;-93
2022/06/12 10:21:10;;;;;;;2.60;1.52;;;;;;;;;;6275304;22;20188;-93
2022/06/12 10:24:16;;;;;;;4.63;1.83;;;;;;;;;;6277758;22;20238;-94
2022/06/12 10:27:21;;;;;;;3.75;1.50;;;;;;;;;;6277601;22;20169;-92
2022/06/12 10:33:56;;;;;;;1.70;1.35;;;;;;;;;;6279119;22;20201;-92
2022/06/12 10:37:12;;;;;;;5.53;1.70;;;;;;;;;;6279978;22;20165;-94
2022/06/12 10:40:21;;;;;;;3.30;1.40;;;;;;;;;;6281574;22;20144;-94
2022/06/12 10:43:29;;;;;;;3.60;1.80;;;;;;;;;;6272663;22;20494;-92
2022/06/12 10:46:36;;;;;;;5.45;1.48;;;;;;;;;;6273981;22;20149;-93
2022/06/12 10:49:56;;;;;;;3.08;1.60;;;;;;;;;;6278228;22;20172;-92
2022/06/12 10:53:05;;;;;;;3.28;1.73;;;;;;;;;;6276108;22;20177;-93
2022/06/12 10:56:18;;;;;;;3.25;1.40;;;;;;;;;;6271765;22;20235;-93
2022/06/12 10:59:33;;;;;;;2.90;1.20;;;;;;;;;;6271422;22;20256;-93
2022/06/12 11:03:09;;;;;;;3.90;1.30;;;;;;;;;;6275330;22;20168;-93
2022/06/12 11:06:22;;;;;;;3.05;1.58;;;;;;;;;;6173377;22;20162;-94
2022/06/12 11:09:35;;;;;;;4.80;1.20;;;;;;;;;;6272551;22;20185;-93
2022/06/12 11:12:47;;;;;;;3.65;1.27;;;;;;;;;;6272968;22;20490;-92
2022/06/12 11:16:05;;;;;;;2.75;1.30;;;;;;;;;;6270742;22;20160;-93
2022/06/12 11:19:19;;;;;;;2.20;1.15;;;;;;;;;;6271356;22;20208;-94
2022/06/12 11:27:04;;;;;;;7.80;1.55;;;;;;;;;;6292022;22;20149;-94
2022/06/12 11:30:23;;;;;;;3.47;1.40;;;;;;;;;;6275814;22;20177;-93
2022/06/12 12:05:56;;;;;;;4.15;1.35;;;;;;;;;;6305705;22;20216;-94
2022/06/12 12:09:07;;;;;;;1.70;1.15;;;;;;;;;;6307804;22;20176;-95
2022/06/12 12:12:17;;;;;;;1.02;0.90;;;;;;;;;;6292783;22;20175;-95
2022/06/12 12:15:32;;;;;;;3.30;1.30;;;;;;;;;;6311195;22;20187;-95
2022/06/12 12:18:40;;;;;;;9.55;2.80;;;;;;;;;;6309339;22;20188;-94
2022/06/12 12:26:09;;;;;;;3.47;1.30;;;;;;;;;;6327688;22;20164;-95
2022/06/12 12:29:18;;;;;;;1.88;1.27;;;;;;;;;;6309869;22;20167;-95
2022/06/12 12:32:24;;;;;;;5.25;1.27;;;;;;;;;;6312049;22;20169;-94
2022/06/12 18:33:25;;;;;;;5.03;2.40;;;;;;;;;;6278355;22;20211;-93
2022/06/12 18:36:34;;;;;;;4.05;2.28;;;;;;;;;;6263638;22;20186;-93
2022/06/12 18:39:40;;;;;;;5.20;2.15;;;;;;;;;;6281822;22;20193;-94
2022/06/12 22:40:21;;;;;;;5.53;3.70;;;;;;;;;;6269042;22;20182;-91
2022/06/12 22:43:31;;;;;;;7.97;4.03;;;;;;;;;;6269931;22;20207;-93
